sensor_id;sensor_type;location;lat;lon;timestamp;P1;durP1;ratioP1;P2;durP2;ratioP2
14203;SDS011;7185;51.854;6.622;2023-05-07T00:00:11;15.23;;;10.77;;
14203;SDS011;7185;51.854;6.622;2023-05-07T00:02:45;14.48;;;10.02;;
14203;SDS011;7185;51.854;6.622;2023-05-07T00:05:17;14.70;;;10.93;;
14203;SDS011;7185;51.854;6.622;2023-05-07T00:07:49;14.70;;;10.90;;
14203;SDS011;7185;51.854;6.622;2023-05-07T00:10:22;15.88;;;10.63;;
14203;SDS011;7185;51.854;6.622;2023-05-07T00:12:55;12.02;;;9.85;;
14203;SDS011;7185;51.854;6.622;2023-05-07T00:15:28;18.00;;;10.75;;
14203;SDS011;7185;51.854;6.622;2023-05-07T00:17:59;17.15;;;10.60;;
14203;SDS011;7185;51.854;6.622;2023-05-07T00:20:31;12.55;;;10.13;;
14203;SDS011;7185;51.854;6.622;2023-05-07T00:23:03;12.68;;;9.82;;
14203;SDS011;7185;51.854;6.622;2023-05-07T00:25:34;14.27;;;9.10;;
14203;SDS011;7185;51.854;6.622;2023-05-07T00:28:06;12.63;;;9.13;;
14203;SDS011;7185;51.854;6.622;2023-05-07T00:30:39;14.25;;;9.13;;
14203;SDS011;7185;51.854;6.622;2023-05-07T00:33:10;12.02;;;8.85;;
14203;SDS011;7185;51.854;6.622;2023-05-07T00:35:42;12.32;;;9.02;;
14203;SDS011;7185;51.854;6.622;2023-05-07T00:38:13;10.27;;;8.20;;
14203;SDS011;7185;51.854;6.622;2023-05-07T00:40:45;10.15;;;8.63;;
14203;SDS011;7185;51.854;6.622;2023-05-07T00:45:51;11.73;;;8.32;;
14203;SDS011;7185;51.854;6.622;2023-05-07T00:48:22;11.60;;;9.00;;
14203;SDS011;7185;51.854;6.622;2023-05-07T00:50:54;13.27;;;8.88;;
14203;SDS011;7185;51.854;6.622;2023-05-07T00:53:26;12.57;;;9.63;;
14203;SDS011;7185;51.854;6.622;2023-05-07T00:55:57;13.18;;;8.98;;
14203;SDS011;7185;51.854;6.622;2023-05-07T00:58:30;12.27;;;9.82;;
14203;SDS011;7185;51.854;6.622;2023-05-07T01:01:03;16.85;;;11.30;;
14203;SDS011;7185;51.854;6.622;2023-05-07T01:03:35;17.55;;;10.63;;
14203;SDS011;7185;51.854;6.622;2023-05-07T01:06:06;16.00;;;11.57;;
14203;SDS011;7185;51.854;6.622;2023-05-07T01:08:39;18.30;;;11.77;;
14203;SDS011;7185;51.854;6.622;2023-05-07T01:11:12;19.92;;;12.27;;
14203;SDS011;7185;51.854;6.622;2023-05-07T01:13:44;22.48;;;10.43;;
14203;SDS011;7185;51.854;6.622;2023-05-07T01:16:18;16.17;;;10.13;;
14203;SDS011;7185;51.854;6.622;2023-05-07T01:18:50;15.75;;;10.02;;
14203;SDS011;7185;51.854;6.622;2023-05-07T01:21:22;14.85;;;10.95;;
14203;SDS011;7185;51.854;6.622;2023-05-07T01:23:58;13.88;;;10.30;;
14203;SDS011;7185;51.854;6.622;2023-05-07T01:26:30;14.95;;;10.73;;
14203;SDS011;7185;51.854;6.622;2023-05-07T01:29:02;16.52;;;10.80;;
14203;SDS011;7185;51.854;6.622;2023-05-07T01:31:33;17.50;;;11.32;;
14203;SDS011;7185;51.854;6.622;2023-05-07T01:34:06;20.55;;;13.68;;
14203;SDS011;7185;51.854;6.622;2023-05-07T01:36:39;22.27;;;14.50;;
14203;SDS011;7185;51.854;6.622;2023-05-07T01:39:15;22.52;;;13.48;;
14203;SDS011;7185;51.854;6.622;2023-05-07T01:41:47;20.33;;;13.38;;
14203;SDS011;7185;51.854;6.622;2023-05-07T01:44:20;18.65;;;13.73;;
14203;SDS011;7185;51.854;6.622;2023-05-07T01:46:52;20.95;;;14.15;;
14203;SDS011;7185;51.854;6.622;2023-05-07T01:49:25;20.05;;;14.50;;
14203;SDS011;7185;51.854;6.622;2023-05-07T01:51:57;20.55;;;13.40;;
14203;SDS011;7185;51.854;6.622;2023-05-07T01:54:30;18.98;;;14.10;;
14203;SDS011;7185;51.854;6.622;2023-05-07T01:57:02;21.90;;;13.85;;
14203;SDS011;7185;51.854;6.622;2023-05-07T01:59:34;20.48;;;13.38;;
14203;SDS011;7185;51.854;6.622;2023-05-07T02:02:05;21.10;;;13.65;;
14203;SDS011;7185;51.854;6.622;2023-05-07T02:04:37;18.52;;;13.30;;
14203;SDS011;7185;51.854;6.622;2023-05-07T02:07:08;18.73;;;13.60;;
14203;SDS011;7185;51.854;6.622;2023-05-07T02:09:41;17.60;;;12.15;;
14203;SDS011;7185;51.854;6.622;2023-05-07T02:12:13;20.20;;;13.02;;
14203;SDS011;7185;51.854;6.622;2023-05-07T02:14:44;18.55;;;13.27;;
14203;SDS011;7185;51.854;6.622;2023-05-07T02:17:16;16.92;;;12.35;;
14203;SDS011;7185;51.854;6.622;2023-05-07T02:19:47;16.77;;;13.45;;
14203;SDS011;7185;51.854;6.622;2023-05-07T02:22:19;19.17;;;15.30;;
14203;SDS011;7185;51.854;6.622;2023-05-07T02:24:52;18.60;;;13.93;;
14203;SDS011;7185;51.854;6.622;2023-05-07T02:27:23;18.10;;;12.77;;
14203;SDS011;7185;51.854;6.622;2023-05-07T02:29:55;21.80;;;14.05;;
14203;SDS011;7185;51.854;6.622;2023-05-07T02:32:26;19.83;;;13.85;;
14203;SDS011;7185;51.854;6.622;2023-05-07T02:34:58;18.25;;;14.27;;
14203;SDS011;7185;51.854;6.622;2023-05-07T02:37:29;16.67;;;13.02;;
14203;SDS011;7185;51.854;6.622;2023-05-07T02:40:03;19.25;;;13.52;;
14203;SDS011;7185;51.854;6.622;2023-05-07T02:42:35;18.50;;;14.40;;
14203;SDS011;7185;51.854;6.622;2023-05-07T02:45:07;21.33;;;13.68;;
14203;SDS011;7185;51.854;6.622;2023-05-07T02:47:39;18.42;;;13.77;;
14203;SDS011;7185;51.854;6.622;2023-05-07T02:50:11;19.10;;;13.38;;
14203;SDS011;7185;51.854;6.622;2023-05-07T02:52:43;22.70;;;14.00;;
14203;SDS011;7185;51.854;6.622;2023-05-07T02:55:16;19.58;;;14.02;;
14203;SDS011;7185;51.854;6.622;2023-05-07T02:57:47;20.20;;;14.00;;
14203;SDS011;7185;51.854;6.622;2023-05-07T03:00:19;17.27;;;13.70;;
14203;SDS011;7185;51.854;6.622;2023-05-07T03:02:51;18.30;;;14.50;;
14203;SDS011;7185;51.854;6.622;2023-05-07T03:05:23;22.63;;;14.75;;
14203;SDS011;7185;51.854;6.622;2023-05-07T03:07:54;18.60;;;13.90;;
14203;SDS011;7185;51.854;6.622;2023-05-07T03:10:27;20.05;;;13.93;;
14203;SDS011;7185;51.854;6.622;2023-05-07T03:12:59;19.40;;;13.82;;
14203;SDS011;7185;51.854;6.622;2023-05-07T03:15:35;17.90;;;13.90;;
14203;SDS011;7185;51.854;6.622;2023-05-07T03:18:17;19.80;;;14.73;;
14203;SDS011;7185;51.854;6.622;2023-05-07T03:20:56;18.17;;;13.68;;
14203;SDS011;7185;51.854;6.622;2023-05-07T03:23:35;19.88;;;14.35;;
14203;SDS011;7185;51.854;6.622;2023-05-07T03:26:26;20.00;;;15.35;;
14203;SDS011;7185;51.854;6.622;2023-05-07T03:29:10;19.48;;;13.80;;
14203;SDS011;7185;51.854;6.622;2023-05-07T03:31:51;19.67;;;14.77;;
14203;SDS011;7185;51.854;6.622;2023-05-07T03:34:28;25.10;;;15.55;;
14203;SDS011;7185;51.854;6.622;2023-05-07T03:36:59;20.08;;;14.60;;
14203;SDS011;7185;51.854;6.622;2023-05-07T03:39:41;26.75;;;13.80;;
14203;SDS011;7185;51.854;6.622;2023-05-07T03:42:26;19.02;;;13.63;;
14203;SDS011;7185;51.854;6.622;2023-05-07T03:45:15;19.75;;;13.65;;
14203;SDS011;7185;51.854;6.622;2023-05-07T03:47:56;20.90;;;13.27;;
14203;SDS011;7185;51.854;6.622;2023-05-07T03:50:32;23.60;;;13.55;;
14203;SDS011;7185;51.854;6.622;2023-05-07T03:53:23;17.08;;;13.15;;
14203;SDS011;7185;51.854;6.622;2023-05-07T03:56:06;21.83;;;13.32;;
14203;SDS011;7185;51.854;6.622;2023-05-07T03:58:48;22.33;;;14.00;;
14203;SDS011;7185;51.854;6.622;2023-05-07T04:01:29;17.02;;;13.52;;
14203;SDS011;7185;51.854;6.622;2023-05-07T04:04:08;18.73;;;13.23;;
14203;SDS011;7185;51.854;6.622;2023-05-07T04:06:54;17.42;;;13.68;;
14203;SDS011;7185;51.854;6.622;2023-05-07T04:09:34;20.08;;;13.48;;
14203;SDS011;7185;51.854;6.622;2023-05-07T04:12:15;24.30;;;15.70;;
14203;SDS011;7185;51.854;6.622;2023-05-07T04:18:00;24.67;;;14.93;;
14203;SDS011;7185;51.854;6.622;2023-05-07T04:20:38;22.52;;;14.75;;
14203;SDS011;7185;51.854;6.622;2023-05-07T04:23:30;20.08;;;14.50;;
14203;SDS011;7185;51.854;6.622;2023-05-07T04:26:08;21.67;;;15.27;;
14203;SDS011;7185;51.854;6.622;2023-05-07T04:28:41;22.60;;;14.93;;
14203;SDS011;7185;51.854;6.622;2023-05-07T04:31:17;23.48;;;15.40;;
14203;SDS011;7185;51.854;6.622;2023-05-07T04:33:57;20.85;;;14.27;;
14203;SDS011;7185;51.854;6.622;2023-05-07T04:36:35;24.20;;;14.48;;
14203;SDS011;7185;51.854;6.622;2023-05-07T04:39:16;18.92;;;14.15;;
14203;SDS011;7185;51.854;6.622;2023-05-07T04:42:03;19.70;;;13.68;;
14203;SDS011;7185;51.854;6.622;2023-05-07T04:44:52;18.80;;;12.27;;
14203;SDS011;7185;51.854;6.622;2023-05-07T04:47:38;16.73;;;12.23;;
14203;SDS011;7185;51.854;6.622;2023-05-07T04:50:16;17.48;;;12.43;;
14203;SDS011;7185;51.854;6.622;2023-05-07T04:52:49;16.40;;;12.35;;
14203;SDS011;7185;51.854;6.622;2023-05-07T04:55:20;19.20;;;13.48;;
14203;SDS011;7185;51.854;6.622;2023-05-07T04:57:52;15.90;;;12.18;;
14203;SDS011;7185;51.854;6.622;2023-05-07T05:00:24;17.70;;;12.52;;
14203;SDS011;7185;51.854;6.622;2023-05-07T05:02:57;18.60;;;13.82;;
14203;SDS011;7185;51.854;6.622;2023-05-07T05:05:29;18.70;;;13.07;;
14203;SDS011;7185;51.854;6.622;2023-05-07T05:08:00;18.13;;;12.90;;
14203;SDS011;7185;51.854;6.622;2023-05-07T05:10:32;18.60;;;13.68;;
14203;SDS011;7185;51.854;6.622;2023-05-07T05:13:03;18.83;;;13.93;;
14203;SDS011;7185;51.854;6.622;2023-05-07T05:15:35;18.38;;;13.20;;
14203;SDS011;7185;51.854;6.622;2023-05-07T05:18:08;19.77;;;14.55;;
14203;SDS011;7185;51.854;6.622;2023-05-07T05:20:40;18.70;;;13.20;;
14203;SDS011;7185;51.854;6.622;2023-05-07T05:23:11;20.50;;;14.70;;
14203;SDS011;7185;51.854;6.622;2023-05-07T05:25:43;18.48;;;13.45;;
14203;SDS011;7185;51.854;6.622;2023-05-07T05:28:14;19.27;;;13.68;;
14203;SDS011;7185;51.854;6.622;2023-05-07T05:30:48;19.08;;;14.45;;
14203;SDS011;7185;51.854;6.622;2023-05-07T05:33:23;19.85;;;13.15;;
14203;SDS011;7185;51.854;6.622;2023-05-07T05:35:54;19.38;;;14.07;;
14203;SDS011;7185;51.854;6.622;2023-05-07T05:38:26;20.20;;;14.93;;
14203;SDS011;7185;51.854;6.622;2023-05-07T05:40:57;18.13;;;13.73;;
14203;SDS011;7185;51.854;6.622;2023-05-07T05:43:29;23.00;;;14.90;;
14203;SDS011;7185;51.854;6.622;2023-05-07T05:46:01;26.35;;;15.07;;
14203;SDS011;7185;51.854;6.622;2023-05-07T05:48:35;25.65;;;15.80;;
14203;SDS011;7185;51.854;6.622;2023-05-07T05:51:07;25.20;;;15.30;;
14203;SDS011;7185;51.854;6.622;2023-05-07T05:53:38;21.65;;;14.20;;
14203;SDS011;7185;51.854;6.622;2023-05-07T05:56:10;19.38;;;13.65;;
14203;SDS011;7185;51.854;6.622;2023-05-07T05:58:41;20.25;;;14.10;;
14203;SDS011;7185;51.854;6.622;2023-05-07T06:01:13;20.13;;;13.63;;
14203;SDS011;7185;51.854;6.622;2023-05-07T06:03:46;20.08;;;13.85;;
14203;SDS011;7185;51.854;6.622;2023-05-07T06:06:18;19.92;;;13.15;;
14203;SDS011;7185;51.854;6.622;2023-05-07T06:11:24;22.30;;;13.82;;
14203;SDS011;7185;51.854;6.622;2023-05-07T06:13:56;19.33;;;12.80;;
14203;SDS011;7185;51.854;6.622;2023-05-07T06:16:28;23.50;;;13.48;;
14203;SDS011;7185;51.854;6.622;2023-05-07T06:19:01;21.42;;;14.60;;
14203;SDS011;7185;51.854;6.622;2023-05-07T06:21:32;19.25;;;13.80;;
14203;SDS011;7185;51.854;6.622;2023-05-07T06:24:04;21.77;;;13.93;;
14203;SDS011;7185;51.854;6.622;2023-05-07T06:26:36;24.38;;;14.25;;
14203;SDS011;7185;51.854;6.622;2023-05-07T06:29:08;19.52;;;14.18;;
14203;SDS011;7185;51.854;6.622;2023-05-07T06:31:39;21.15;;;13.30;;
14203;SDS011;7185;51.854;6.622;2023-05-07T06:34:12;18.83;;;13.30;;
14203;SDS011;7185;51.854;6.622;2023-05-07T06:36:45;17.88;;;13.05;;
14203;SDS011;7185;51.854;6.622;2023-05-07T06:39:16;20.15;;;14.32;;
14203;SDS011;7185;51.854;6.622;2023-05-07T06:41:48;19.45;;;13.80;;
14203;SDS011;7185;51.854;6.622;2023-05-07T06:44:19;18.75;;;13.85;;
14203;SDS011;7185;51.854;6.622;2023-05-07T06:46:51;18.17;;;13.50;;
14203;SDS011;7185;51.854;6.622;2023-05-07T06:49:24;19.25;;;13.35;;
14203;SDS011;7185;51.854;6.622;2023-05-07T06:51:55;18.92;;;12.40;;
14203;SDS011;7185;51.854;6.622;2023-05-07T06:54:27;18.92;;;13.30;;
14203;SDS011;7185;51.854;6.622;2023-05-07T06:56:58;19.48;;;12.23;;
14203;SDS011;7185;51.854;6.622;2023-05-07T06:59:30;24.08;;;17.60;;
14203;SDS011;7185;51.854;6.622;2023-05-07T07:02:02;18.92;;;12.25;;
14203;SDS011;7185;51.854;6.622;2023-05-07T07:04:35;18.10;;;13.00;;
14203;SDS011;7185;51.854;6.622;2023-05-07T07:07:06;17.20;;;12.77;;
14203;SDS011;7185;51.854;6.622;2023-05-07T07:09:38;17.67;;;12.05;;
14203;SDS011;7185;51.854;6.622;2023-05-07T07:12:09;22.52;;;13.80;;
14203;SDS011;7185;51.854;6.622;2023-05-07T07:14:41;18.55;;;12.90;;
14203;SDS011;7185;51.854;6.622;2023-05-07T07:17:12;19.30;;;13.10;;
14203;SDS011;7185;51.854;6.622;2023-05-07T07:19:45;17.73;;;12.27;;
14203;SDS011;7185;51.854;6.622;2023-05-07T07:22:17;16.35;;;12.85;;
14203;SDS011;7185;51.854;6.622;2023-05-07T07:24:48;16.20;;;12.13;;
14203;SDS011;7185;51.854;6.622;2023-05-07T07:27:21;17.77;;;12.75;;
14203;SDS011;7185;51.854;6.622;2023-05-07T07:29:52;16.58;;;11.63;;
14203;SDS011;7185;51.854;6.622;2023-05-07T07:32:24;15.18;;;11.95;;
14203;SDS011;7185;51.854;6.622;2023-05-07T07:34:57;16.70;;;12.20;;
14203;SDS011;7185;51.854;6.622;2023-05-07T07:37:28;18.73;;;11.85;;
14203;SDS011;7185;51.854;6.622;2023-05-07T07:40:00;15.85;;;11.80;;
14203;SDS011;7185;51.854;6.622;2023-05-07T07:42:32;19.40;;;12.60;;
14203;SDS011;7185;51.854;6.622;2023-05-07T07:45:04;16.63;;;11.70;;
14203;SDS011;7185;51.854;6.622;2023-05-07T07:47:37;17.90;;;11.85;;
14203;SDS011;7185;51.854;6.622;2023-05-07T07:50:10;16.35;;;12.65;;
14203;SDS011;7185;51.854;6.622;2023-05-07T07:52:42;16.20;;;12.10;;
14203;SDS011;7185;51.854;6.622;2023-05-07T07:55:14;18.08;;;13.07;;
14203;SDS011;7185;51.854;6.622;2023-05-07T07:57:48;18.58;;;12.63;;
14203;SDS011;7185;51.854;6.622;2023-05-07T08:00:19;17.48;;;12.77;;
14203;SDS011;7185;51.854;6.622;2023-05-07T08:02:51;16.63;;;11.43;;
14203;SDS011;7185;51.854;6.622;2023-05-07T08:05:24;22.63;;;12.10;;
14203;SDS011;7185;51.854;6.622;2023-05-07T08:07:57;16.92;;;11.90;;
14203;SDS011;7185;51.854;6.622;2023-05-07T08:10:28;14.88;;;11.20;;
14203;SDS011;7185;51.854;6.622;2023-05-07T08:13:03;18.55;;;12.80;;
14203;SDS011;7185;51.854;6.622;2023-05-07T08:15:36;20.73;;;12.93;;
14203;SDS011;7185;51.854;6.622;2023-05-07T08:18:07;16.95;;;12.32;;
14203;SDS011;7185;51.854;6.622;2023-05-07T08:20:40;19.40;;;12.75;;
14203;SDS011;7185;51.854;6.622;2023-05-07T08:23:12;19.02;;;12.82;;
14203;SDS011;7185;51.854;6.622;2023-05-07T08:25:44;17.55;;;13.45;;
14203;SDS011;7185;51.854;6.622;2023-05-07T08:28:15;16.77;;;12.98;;
14203;SDS011;7185;51.854;6.622;2023-05-07T08:30:47;16.35;;;12.88;;
14203;SDS011;7185;51.854;6.622;2023-05-07T08:33:18;17.42;;;11.98;;
14203;SDS011;7185;51.854;6.622;2023-05-07T08:35:51;16.23;;;12.20;;
14203;SDS011;7185;51.854;6.622;2023-05-07T08:38:23;13.43;;;11.57;;
14203;SDS011;7185;51.854;6.622;2023-05-07T08:40:54;16.25;;;11.82;;
14203;SDS011;7185;51.854;6.622;2023-05-07T08:43:26;17.08;;;11.13;;
14203;SDS011;7185;51.854;6.622;2023-05-07T08:45:58;16.02;;;11.65;;
14203;SDS011;7185;51.854;6.622;2023-05-07T08:48:32;18.92;;;12.48;;
14203;SDS011;7185;51.854;6.622;2023-05-07T08:51:05;15.13;;;12.00;;
14203;SDS011;7185;51.854;6.622;2023-05-07T08:53:38;15.30;;;11.38;;
14203;SDS011;7185;51.854;6.622;2023-05-07T08:56:12;19.33;;;12.63;;
14203;SDS011;7185;51.854;6.622;2023-05-07T08:58:45;19.13;;;12.02;;
14203;SDS011;7185;51.854;6.622;2023-05-07T09:01:17;17.00;;;12.05;;
14203;SDS011;7185;51.854;6.622;2023-05-07T09:03:51;14.20;;;11.88;;
14203;SDS011;7185;51.854;6.622;2023-05-07T09:06:25;16.52;;;11.98;;
14203;SDS011;7185;51.854;6.622;2023-05-07T09:08:57;23.23;;;12.80;;
14203;SDS011;7185;51.854;6.622;2023-05-07T09:11:31;15.18;;;10.80;;
14203;SDS011;7185;51.854;6.622;2023-05-07T09:14:02;14.95;;;10.75;;
14203;SDS011;7185;51.854;6.622;2023-05-07T09:16:34;17.75;;;11.52;;
14203;SDS011;7185;51.854;6.622;2023-05-07T09:19:06;14.85;;;11.30;;
14203;SDS011;7185;51.854;6.622;2023-05-07T09:21:39;17.10;;;12.20;;
14203;SDS011;7185;51.854;6.622;2023-05-07T09:24:11;14.05;;;11.90;;
14203;SDS011;7185;51.854;6.622;2023-05-07T09:26:42;15.40;;;11.40;;
14203;SDS011;7185;51.854;6.622;2023-05-07T09:29:15;14.48;;;11.90;;
14203;SDS011;7185;51.854;6.622;2023-05-07T09:31:47;14.15;;;11.25;;
14203;SDS011;7185;51.854;6.622;2023-05-07T09:34:18;16.85;;;11.70;;
14203;SDS011;7185;51.854;6.622;2023-05-07T09:36:51;17.05;;;11.80;;
14203;SDS011;7185;51.854;6.622;2023-05-07T09:39:24;15.90;;;11.60;;
14203;SDS011;7185;51.854;6.622;2023-05-07T09:41:56;13.73;;;10.80;;
14203;SDS011;7185;51.854;6.622;2023-05-07T09:44:28;13.50;;;10.63;;
14203;SDS011;7185;51.854;6.622;2023-05-07T09:47:00;16.02;;;9.90;;
14203;SDS011;7185;51.854;6.622;2023-05-07T09:49:33;15.10;;;10.48;;
14203;SDS011;7185;51.854;6.622;2023-05-07T09:52:08;13.00;;;10.57;;
14203;SDS011;7185;51.854;6.622;2023-05-07T09:54:41;17.02;;;10.48;;
14203;SDS011;7185;51.854;6.622;2023-05-07T09:57:14;13.20;;;9.77;;
14203;SDS011;7185;51.854;6.622;2023-05-07T09:59:47;17.30;;;10.27;;
14203;SDS011;7185;51.854;6.622;2023-05-07T10:02:20;12.63;;;9.18;;
14203;SDS011;7185;51.854;6.622;2023-05-07T10:04:52;14.10;;;10.00;;
14203;SDS011;7185;51.854;6.622;2023-05-07T10:07:27;11.93;;;9.13;;
14203;SDS011;7185;51.854;6.622;2023-05-07T10:09:59;11.48;;;8.60;;
14203;SDS011;7185;51.854;6.622;2023-05-07T10:12:31;11.07;;;9.20;;
14203;SDS011;7185;51.854;6.622;2023-05-07T10:15:09;10.05;;;7.88;;
14203;SDS011;7185;51.854;6.622;2023-05-07T10:17:42;11.48;;;7.95;;
14203;SDS011;7185;51.854;6.622;2023-05-07T10:20:14;11.73;;;8.80;;
14203;SDS011;7185;51.854;6.622;2023-05-07T10:22:47;11.80;;;8.15;;
14203;SDS011;7185;51.854;6.622;2023-05-07T10:25:22;11.60;;;8.35;;
14203;SDS011;7185;51.854;6.622;2023-05-07T10:28:00;11.13;;;8.02;;
14203;SDS011;7185;51.854;6.622;2023-05-07T10:30:38;11.32;;;8.40;;
14203;SDS011;7185;51.854;6.622;2023-05-07T10:33:22;11.70;;;8.60;;
14203;SDS011;7185;51.854;6.622;2023-05-07T10:35:58;9.98;;;7.43;;
14203;SDS011;7185;51.854;6.622;2023-05-07T10:38:33;12.75;;;8.55;;
14203;SDS011;7185;51.854;6.622;2023-05-07T10:41:05;10.60;;;8.68;;
14203;SDS011;7185;51.854;6.622;2023-05-07T10:43:39;12.10;;;8.23;;
14203;SDS011;7185;51.854;6.622;2023-05-07T10:51:42;11.90;;;6.37;;
14203;SDS011;7185;51.854;6.622;2023-05-07T10:54:22;10.10;;;6.72;;
14203;SDS011;7185;51.854;6.622;2023-05-07T10:56:55;11.18;;;7.40;;
14203;SDS011;7185;51.854;6.622;2023-05-07T10:59:33;11.55;;;8.43;;
14203;SDS011;7185;51.854;6.622;2023-05-07T11:02:10;14.50;;;8.68;;
14203;SDS011;7185;51.854;6.622;2023-05-07T11:04:44;10.18;;;7.72;;
14203;SDS011;7185;51.854;6.622;2023-05-07T11:10:08;10.48;;;7.15;;
14203;SDS011;7185;51.854;6.622;2023-05-07T11:12:51;10.68;;;7.85;;
14203;SDS011;7185;51.854;6.622;2023-05-07T11:15:37;11.45;;;8.07;;
14203;SDS011;7185;51.854;6.622;2023-05-07T11:18:20;10.30;;;7.77;;
14203;SDS011;7185;51.854;6.622;2023-05-07T11:20:54;10.73;;;7.68;;
14203;SDS011;7185;51.854;6.622;2023-05-07T11:26:30;13.02;;;8.57;;
14203;SDS011;7185;51.854;6.622;2023-05-07T11:29:12;11.07;;;8.40;;
14203;SDS011;7185;51.854;6.622;2023-05-07T11:31:48;10.43;;;8.82;;
14203;SDS011;7185;51.854;6.622;2023-05-07T11:34:21;13.43;;;8.25;;
14203;SDS011;7185;51.854;6.622;2023-05-07T11:36:53;10.70;;;7.15;;
14203;SDS011;7185;51.854;6.622;2023-05-07T11:39:27;10.88;;;7.72;;
14203;SDS011;7185;51.854;6.622;2023-05-07T11:42:01;11.30;;;9.18;;
14203;SDS011;7185;51.854;6.622;2023-05-07T11:44:42;12.43;;;9.02;;
14203;SDS011;7185;51.854;6.622;2023-05-07T11:47:16;11.15;;;8.35;;
14203;SDS011;7185;51.854;6.622;2023-05-07T11:49:49;12.05;;;8.85;;
14203;SDS011;7185;51.854;6.622;2023-05-07T11:52:23;13.30;;;9.38;;
14203;SDS011;7185;51.854;6.622;2023-05-07T11:54:56;12.50;;;8.68;;
14203;SDS011;7185;51.854;6.622;2023-05-07T11:57:32;11.15;;;8.57;;
14203;SDS011;7185;51.854;6.622;2023-05-07T12:00:05;11.20;;;7.63;;
14203;SDS011;7185;51.854;6.622;2023-05-07T12:02:37;12.38;;;7.18;;
14203;SDS011;7185;51.854;6.622;2023-05-07T12:05:09;11.50;;;8.18;;
14203;SDS011;7185;51.854;6.622;2023-05-07T12:07:40;12.35;;;8.05;;
14203;SDS011;7185;51.854;6.622;2023-05-07T12:10:12;8.45;;;6.60;;
14203;SDS011;7185;51.854;6.622;2023-05-07T12:12:47;11.35;;;7.85;;
14203;SDS011;7185;51.854;6.622;2023-05-07T12:15:22;14.13;;;8.27;;
14203;SDS011;7185;51.854;6.622;2023-05-07T12:17:53;14.47;;;9.27;;
14203;SDS011;7185;51.854;6.622;2023-05-07T12:20:25;12.63;;;8.13;;
14203;SDS011;7185;51.854;6.622;2023-05-07T12:22:57;8.98;;;7.35;;
14203;SDS011;7185;51.854;6.622;2023-05-07T12:25:29;11.35;;;7.30;;
14203;SDS011;7185;51.854;6.622;2023-05-07T12:28:03;10.25;;;6.90;;
14203;SDS011;7185;51.854;6.622;2023-05-07T12:30:36;8.02;;;6.40;;
14203;SDS011;7185;51.854;6.622;2023-05-07T12:33:08;11.55;;;6.43;;
14203;SDS011;7185;51.854;6.622;2023-05-07T12:35:40;10.80;;;6.97;;
14203;SDS011;7185;51.854;6.622;2023-05-07T12:38:13;11.95;;;7.20;;
14203;SDS011;7185;51.854;6.622;2023-05-07T12:40:46;10.88;;;6.60;;
14203;SDS011;7185;51.854;6.622;2023-05-07T12:43:24;11.68;;;6.40;;
14203;SDS011;7185;51.854;6.622;2023-05-07T12:45:59;9.48;;;5.78;;
14203;SDS011;7185;51.854;6.622;2023-05-07T12:48:32;8.65;;;6.03;;
14203;SDS011;7185;51.854;6.622;2023-05-07T12:51:05;10.27;;;6.07;;
14203;SDS011;7185;51.854;6.622;2023-05-07T12:53:40;10.82;;;6.65;;
14203;SDS011;7185;51.854;6.622;2023-05-07T12:56:12;10.90;;;7.15;;
14203;SDS011;7185;51.854;6.622;2023-05-07T12:58:48;10.90;;;6.30;;
14203;SDS011;7185;51.854;6.622;2023-05-07T13:01:20;9.20;;;6.25;;
14203;SDS011;7185;51.854;6.622;2023-05-07T13:03:53;9.25;;;6.20;;
14203;SDS011;7185;51.854;6.622;2023-05-07T13:06:25;11.63;;;5.85;;
14203;SDS011;7185;51.854;6.622;2023-05-07T13:08:57;10.52;;;6.35;;
14203;SDS011;7185;51.854;6.622;2023-05-07T13:11:29;9.52;;;6.35;;
14203;SDS011;7185;51.854;6.622;2023-05-07T13:14:02;10.98;;;6.10;;
14203;SDS011;7185;51.854;6.622;2023-05-07T13:16:33;11.60;;;6.53;;
14203;SDS011;7185;51.854;6.622;2023-05-07T13:19:05;13.35;;;6.80;;
14203;SDS011;7185;51.854;6.622;2023-05-07T13:21:36;7.85;;;6.20;;
14203;SDS011;7185;51.854;6.622;2023-05-07T13:24:08;8.15;;;5.65;;
14203;SDS011;7185;51.854;6.622;2023-05-07T13:26:39;10.45;;;7.60;;
14203;SDS011;7185;51.854;6.622;2023-05-07T13:29:12;11.63;;;6.95;;
14203;SDS011;7185;51.854;6.622;2023-05-07T13:31:44;11.77;;;6.72;;
14203;SDS011;7185;51.854;6.622;2023-05-07T13:34:16;11.30;;;6.70;;
14203;SDS011;7185;51.854;6.622;2023-05-07T13:36:47;10.75;;;6.00;;
14203;SDS011;7185;51.854;6.622;2023-05-07T13:39:19;11.77;;;6.20;;
14203;SDS011;7185;51.854;6.622;2023-05-07T13:41:50;9.50;;;6.43;;
14203;SDS011;7185;51.854;6.622;2023-05-07T13:44:23;9.65;;;5.63;;
14203;SDS011;7185;51.854;6.622;2023-05-07T13:46:55;9.30;;;5.40;;
14203;SDS011;7185;51.854;6.622;2023-05-07T13:49:27;10.00;;;6.57;;
14203;SDS011;7185;51.854;6.622;2023-05-07T13:51:58;10.43;;;5.82;;
14203;SDS011;7185;51.854;6.622;2023-05-07T13:54:30;8.40;;;5.40;;
14203;SDS011;7185;51.854;6.622;2023-05-07T13:57:02;7.97;;;4.85;;
14203;SDS011;7185;51.854;6.622;2023-05-07T13:59:35;6.90;;;4.55;;
14203;SDS011;7185;51.854;6.622;2023-05-07T14:02:07;10.05;;;4.50;;
14203;SDS011;7185;51.854;6.622;2023-05-07T14:04:39;10.80;;;4.60;;
14203;SDS011;7185;51.854;6.622;2023-05-07T14:07:10;9.90;;;4.28;;
14203;SDS011;7185;51.854;6.622;2023-05-07T14:09:45;8.75;;;5.20;;
14203;SDS011;7185;51.854;6.622;2023-05-07T14:12:17;6.93;;;4.50;;
14203;SDS011;7185;51.854;6.622;2023-05-07T14:14:50;9.30;;;5.00;;
14203;SDS011;7185;51.854;6.622;2023-05-07T14:17:21;10.50;;;5.88;;
14203;SDS011;7185;51.854;6.622;2023-05-07T14:19:55;14.88;;;5.20;;
14203;SDS011;7185;51.854;6.622;2023-05-07T14:22:26;10.40;;;5.38;;
14203;SDS011;7185;51.854;6.622;2023-05-07T14:24:58;12.52;;;5.50;;
14203;SDS011;7185;51.854;6.622;2023-05-07T14:27:30;8.15;;;5.70;;
14203;SDS011;7185;51.854;6.622;2023-05-07T14:30:03;25.08;;;11.57;;
14203;SDS011;7185;51.854;6.622;2023-05-07T14:32:35;14.50;;;7.43;;
14203;SDS011;7185;51.854;6.622;2023-05-07T14:35:07;10.20;;;5.72;;
14203;SDS011;7185;51.854;6.622;2023-05-07T14:37:39;9.63;;;5.13;;
14203;SDS011;7185;51.854;6.622;2023-05-07T14:40:11;9.85;;;6.78;;
14203;SDS011;7185;51.854;6.622;2023-05-07T14:42:43;13.75;;;6.75;;
14203;SDS011;7185;51.854;6.622;2023-05-07T14:45:16;10.15;;;6.10;;
14203;SDS011;7185;51.854;6.622;2023-05-07T14:47:48;12.65;;;6.85;;
14203;SDS011;7185;51.854;6.622;2023-05-07T14:50:20;12.55;;;7.70;;
14203;SDS011;7185;51.854;6.622;2023-05-07T14:52:51;14.13;;;7.22;;
14203;SDS011;7185;51.854;6.622;2023-05-07T14:55:23;11.90;;;7.45;;
14203;SDS011;7185;51.854;6.622;2023-05-07T14:57:55;13.07;;;7.38;;
14203;SDS011;7185;51.854;6.622;2023-05-07T15:00:28;13.77;;;7.78;;
14203;SDS011;7185;51.854;6.622;2023-05-07T15:03:03;12.13;;;7.53;;
14203;SDS011;7185;51.854;6.622;2023-05-07T15:05:37;12.23;;;7.90;;
14203;SDS011;7185;51.854;6.622;2023-05-07T15:08:09;15.05;;;9.32;;
14203;SDS011;7185;51.854;6.622;2023-05-07T15:10:41;13.85;;;8.00;;
14203;SDS011;7185;51.854;6.622;2023-05-07T15:13:13;11.10;;;7.20;;
14203;SDS011;7185;51.854;6.622;2023-05-07T15:15:46;9.70;;;6.35;;
14203;SDS011;7185;51.854;6.622;2023-05-07T15:18:17;13.23;;;7.97;;
14203;SDS011;7185;51.854;6.622;2023-05-07T15:20:49;19.17;;;10.23;;
14203;SDS011;7185;51.854;6.622;2023-05-07T15:23:25;10.25;;;7.25;;
14203;SDS011;7185;51.854;6.622;2023-05-07T15:25:57;9.82;;;6.97;;
14203;SDS011;7185;51.854;6.622;2023-05-07T15:28:29;12.00;;;6.68;;
14203;SDS011;7185;51.854;6.622;2023-05-07T15:31:02;11.07;;;7.55;;
14203;SDS011;7185;51.854;6.622;2023-05-07T15:33:33;11.18;;;6.25;;
14203;SDS011;7185;51.854;6.622;2023-05-07T15:36:05;11.68;;;7.05;;